createdAt,value
2024-02-02T00:01:41.388Z,6.50
2024-02-02T00:04:11.219Z,7.60
2024-02-02T00:06:41.416Z,6.70
2024-02-02T00:09:11.453Z,6.80
2024-02-02T00:11:49.393Z,6.80
2024-02-02T00:14:21.454Z,6.50
2024-02-02T00:16:51.684Z,7.00
2024-02-02T00:19:21.596Z,7.40
2024-02-02T00:21:54.326Z,6.40
2024-02-02T00:24:26.445Z,6.20
2024-02-02T00:26:56.463Z,7.30
2024-02-02T00:29:26.258Z,7.50
2024-02-02T00:31:56.086Z,6.30
2024-02-02T00:34:30.430Z,6.00
2024-02-02T00:37:00.345Z,6.30
2024-02-02T00:39:30.260Z,6.40
2024-02-02T00:42:00.362Z,6.90
2024-02-02T00:44:32.592Z,6.40
2024-02-02T00:47:02.438Z,6.90
2024-02-02T00:49:32.381Z,5.60
2024-02-02T00:52:05.025Z,6.00
2024-02-02T00:57:08.469Z,5.70
2024-02-02T00:59:38.309Z,6.40
2024-02-02T01:02:08.088Z,5.90
2024-02-02T01:04:39.488Z,6.10
2024-02-02T01:07:10.220Z,6.50
2024-02-02T01:09:42.669Z,6.50
2024-02-02T01:12:13.096Z,7.00
2024-02-02T01:14:43.987Z,6.00
2024-02-02T01:17:14.403Z,6.10
2024-02-02T01:19:44.335Z,6.50
2024-02-02T01:22:14.457Z,5.60
2024-02-02T01:24:44.307Z,6.80
2024-02-02T01:27:14.982Z,6.00
2024-02-02T01:29:44.912Z,6.10
2024-02-02T01:32:14.737Z,5.70
2024-02-02T01:34:44.892Z,6.30
2024-02-02T01:37:17.337Z,5.60
2024-02-02T01:39:47.298Z,5.40
2024-02-02T01:42:17.279Z,5.20
2024-02-02T01:44:47.119Z,6.00
2024-02-02T01:47:19.616Z,4.70
2024-02-02T01:49:49.929Z,4.90
2024-02-02T01:52:20.123Z,5.40
2024-02-02T01:54:50.158Z,6.10
2024-02-02T01:57:20.755Z,5.10
2024-02-02T01:59:51.201Z,4.90
2024-02-02T02:02:21.293Z,5.10
2024-02-02T02:04:51.127Z,5.30
2024-02-02T02:07:21.077Z,5.60
2024-02-02T02:09:50.883Z,5.10
2024-02-02T02:12:20.793Z,5.60
2024-02-02T02:14:50.914Z,5.60
2024-02-02T02:17:20.823Z,7.40
2024-02-02T02:19:50.955Z,6.70
2024-02-02T02:22:20.906Z,4.90
2024-02-02T02:24:50.722Z,5.40
2024-02-02T02:27:23.167Z,5.50
2024-02-02T02:29:55.470Z,5.70
2024-02-02T02:32:25.686Z,6.00
2024-02-02T02:34:55.755Z,5.60
2024-02-02T02:37:25.561Z,5.80
2024-02-02T02:39:55.568Z,6.30
2024-02-02T02:42:25.516Z,5.10
2024-02-02T02:44:55.761Z,5.60
2024-02-02T02:47:25.752Z,5.70
2024-02-02T02:49:58.009Z,6.40
2024-02-02T02:52:28.026Z,6.20
2024-02-02T02:55:00.501Z,5.70
2024-02-02T02:57:30.563Z,5.50
2024-02-02T03:00:00.704Z,7.50
2024-02-02T03:02:33.097Z,6.00
2024-02-02T03:05:03.007Z,6.30
2024-02-02T03:07:32.859Z,7.60
2024-02-02T03:10:04.477Z,6.10
2024-02-02T03:12:34.265Z,6.20
2024-02-02T03:15:04.624Z,6.00
2024-02-02T03:17:34.606Z,5.90
2024-02-02T03:20:08.448Z,5.60
2024-02-02T03:22:38.557Z,6.00
2024-02-02T03:25:09.657Z,5.70
2024-02-02T03:27:39.416Z,5.40
2024-02-02T03:30:11.205Z,5.30
2024-02-02T03:32:42.757Z,4.50
2024-02-02T03:35:13.011Z,4.50
2024-02-02T03:37:42.802Z,5.30
2024-02-02T03:40:14.818Z,4.40
2024-02-02T03:42:45.075Z,5.10
2024-02-02T03:45:15.977Z,4.30
2024-02-02T03:47:45.800Z,5.00
2024-02-02T03:50:16.101Z,4.30
2024-02-02T03:52:48.995Z,4.80
2024-02-02T03:55:19.096Z,3.80
2024-02-02T03:57:53.553Z,4.70
2024-02-02T04:00:23.488Z,5.40
2024-02-02T04:02:54.648Z,4.50
2024-02-02T04:05:24.858Z,4.30
2024-02-02T04:07:54.862Z,5.10
2024-02-02T04:10:26.893Z,3.90
2024-02-02T04:12:59.003Z,4.80
2024-02-02T04:15:30.781Z,4.40
2024-02-02T04:18:03.758Z,4.00
2024-02-02T04:20:33.787Z,4.10
2024-02-02T04:23:03.874Z,3.80
2024-02-02T04:25:33.983Z,3.90
2024-02-02T04:28:05.378Z,3.30
2024-02-02T04:30:36.875Z,3.70
2024-02-02T04:33:07.762Z,4.60
2024-02-02T04:35:40.691Z,3.60
2024-02-02T04:38:10.500Z,3.80
2024-02-02T04:40:40.306Z,4.20
2024-02-02T04:43:13.139Z,4.40
2024-02-02T04:45:43.304Z,4.10
2024-02-02T04:48:13.495Z,3.40
2024-02-02T04:50:43.430Z,5.10
2024-02-02T04:53:14.415Z,3.40
2024-02-02T04:55:44.372Z,3.30
2024-02-02T04:58:14.277Z,4.40
2024-02-02T05:00:46.440Z,3.40
2024-02-02T05:03:16.195Z,3.60
2024-02-02T05:05:46.140Z,3.20
2024-02-02T05:08:17.044Z,3.90
2024-02-02T05:10:46.918Z,4.20
2024-02-02T05:13:16.775Z,3.80
2024-02-02T05:15:47.229Z,3.90
2024-02-02T05:18:17.345Z,3.70
2024-02-02T05:20:50.557Z,4.40
2024-02-02T05:23:20.773Z,3.40
2024-02-02T05:25:53.038Z,3.40
2024-02-02T05:28:22.983Z,3.20
2024-02-02T05:30:53.080Z,3.70
2024-02-02T05:33:23.152Z,3.50
2024-02-02T05:35:53.392Z,4.50
2024-02-02T05:38:25.412Z,3.60
2024-02-02T05:40:55.284Z,3.20
2024-02-02T05:43:25.187Z,3.40
2024-02-02T05:45:55.141Z,3.40
2024-02-02T05:48:25.151Z,3.40
2024-02-02T05:50:57.920Z,2.80
2024-02-02T05:53:30.171Z,3.30
2024-02-02T05:56:00.127Z,3.30
2024-02-02T05:58:30.004Z,3.50
2024-02-02T06:01:02.345Z,5.00
2024-02-02T06:03:34.582Z,3.40
2024-02-02T06:06:04.823Z,4.00
2024-02-02T06:08:35.029Z,2.70
2024-02-02T06:11:08.422Z,3.00
2024-02-02T06:13:38.244Z,3.60
2024-02-02T06:16:11.631Z,3.30
2024-02-02T06:18:41.605Z,3.70
2024-02-02T06:21:11.515Z,3.30
2024-02-02T06:23:41.337Z,3.80
2024-02-02T06:26:11.193Z,3.10
2024-02-02T06:28:43.177Z,2.80
2024-02-02T06:31:15.068Z,2.90
2024-02-02T06:33:45.116Z,2.90
2024-02-02T06:36:17.450Z,3.10
2024-02-02T06:38:47.344Z,2.90
2024-02-02T06:41:17.249Z,3.30
2024-02-02T06:43:47.698Z,3.60
2024-02-02T06:46:17.864Z,2.70
2024-02-02T06:48:49.020Z,2.60
2024-02-02T06:51:21.435Z,3.90
2024-02-02T06:53:52.630Z,3.80
2024-02-02T06:56:40.134Z,2.70
2024-02-02T06:59:10.463Z,3.10
2024-02-02T07:01:40.738Z,3.10
2024-02-02T07:04:17.600Z,3.10
2024-02-02T07:06:50.727Z,2.80
2024-02-02T07:09:30.739Z,3.20
2024-02-02T07:12:05.063Z,2.60
2024-02-02T07:14:48.722Z,3.00
2024-02-02T07:17:27.732Z,3.60
2024-02-02T07:19:58.605Z,3.30
2024-02-02T07:22:44.954Z,2.60
2024-02-02T07:25:18.708Z,3.20
2024-02-02T07:27:58.034Z,4.20
2024-02-02T07:30:57.668Z,2.70
2024-02-02T07:33:33.520Z,3.00
2024-02-02T07:36:05.137Z,2.80
2024-02-02T07:38:50.724Z,2.60
2024-02-02T07:41:25.807Z,2.60
2024-02-02T07:43:57.376Z,3.50
2024-02-02T07:46:27.326Z,2.60
2024-02-02T07:49:01.825Z,2.40
2024-02-02T07:51:31.756Z,2.80
2024-02-02T07:54:01.687Z,2.90
2024-02-02T07:56:31.636Z,3.30
2024-02-02T07:59:04.015Z,2.90
2024-02-02T08:01:36.952Z,2.90
2024-02-02T08:04:07.293Z,3.20
2024-02-02T08:06:37.389Z,2.90
2024-02-02T08:09:10.553Z,3.40
2024-02-02T08:11:42.924Z,3.60
2024-02-02T08:14:12.829Z,3.10
2024-02-02T08:16:42.768Z,2.80
2024-02-02T08:19:12.592Z,4.60
2024-02-02T08:21:42.526Z,3.20
2024-02-02T08:24:12.373Z,2.70
2024-02-02T08:26:42.269Z,3.20
2024-02-02T08:29:14.350Z,3.90
2024-02-02T08:31:47.198Z,2.70
2024-02-02T08:34:17.531Z,3.30
2024-02-02T08:36:49.886Z,3.50
2024-02-02T08:39:20.020Z,3.30
2024-02-02T08:41:50.001Z,3.10
2024-02-02T08:44:24.287Z,3.60
2024-02-02T08:46:57.031Z,3.20
2024-02-02T08:49:47.483Z,3.40
2024-02-02T08:52:28.281Z,3.50
2024-02-02T08:54:58.685Z,3.60
2024-02-02T08:57:37.656Z,3.60
2024-02-02T09:00:37.115Z,3.10
2024-02-02T09:03:23.957Z,4.10
2024-02-02T09:05:58.618Z,3.60
2024-02-02T09:08:35.343Z,3.20
2024-02-02T09:11:27.933Z,4.60
2024-02-02T09:14:08.930Z,4.40
2024-02-02T09:16:44.416Z,3.60
2024-02-02T09:19:29.269Z,3.80
2024-02-02T09:22:00.918Z,3.90
2024-02-02T09:24:42.449Z,3.40
2024-02-02T09:27:19.688Z,4.40
2024-02-02T09:29:52.141Z,3.80
2024-02-02T09:32:22.418Z,5.50
2024-02-02T09:34:52.864Z,4.70
2024-02-02T09:37:26.666Z,4.10
2024-02-02T09:40:00.160Z,4.70
2024-02-02T09:43:02.871Z,4.70
2024-02-02T09:45:47.579Z,4.70
2024-02-02T09:48:30.701Z,3.80
2024-02-02T09:51:11.094Z,4.40
2024-02-02T09:54:06.104Z,4.80
2024-02-02T09:56:48.727Z,5.10
2024-02-02T09:59:26.885Z,5.50
2024-02-02T10:02:12.859Z,5.20
2024-02-02T10:04:58.427Z,6.00
2024-02-02T10:07:40.110Z,4.70
2024-02-02T10:10:34.038Z,5.80
2024-02-02T10:13:14.736Z,5.40
2024-02-02T10:16:06.305Z,6.30
2024-02-02T10:19:00.731Z,5.80
2024-02-02T10:21:49.288Z,6.10
2024-02-02T10:24:41.070Z,5.90
2024-02-02T10:27:33.546Z,5.90
2024-02-02T10:30:13.153Z,5.70
2024-02-02T10:33:10.225Z,5.80
2024-02-02T10:35:50.871Z,5.70
2024-02-02T10:38:35.193Z,5.90
2024-02-02T10:41:16.925Z,6.30
2024-02-02T10:43:58.646Z,7.20
2024-02-02T10:46:39.288Z,6.60
2024-02-02T10:49:29.972Z,7.00
2024-02-02T10:52:16.701Z,7.30
2024-02-02T10:55:03.380Z,6.50
2024-02-02T10:57:38.125Z,7.00
2024-02-02T11:00:16.890Z,6.60
2024-02-02T11:03:09.102Z,6.40
2024-02-02T11:05:49.252Z,6.70
2024-02-02T11:08:22.605Z,7.20
2024-02-02T11:10:58.148Z,7.60
2024-02-02T11:13:43.096Z,6.90
2024-02-02T11:16:38.755Z,7.40
2024-02-02T11:19:23.146Z,8.00
2024-02-02T11:22:08.931Z,8.00
2024-02-02T11:24:54.343Z,7.20
2024-02-02T11:27:34.427Z,7.40
2024-02-02T11:30:07.582Z,8.70
2024-02-02T11:32:58.637Z,7.40
2024-02-02T11:35:38.313Z,9.80
2024-02-02T11:38:17.435Z,8.70
2024-02-02T11:40:48.601Z,8.00
2024-02-02T11:43:21.769Z,9.50
2024-02-02T11:45:53.623Z,8.50
2024-02-02T11:48:33.072Z,8.10
2024-02-02T11:51:10.266Z,8.60
2024-02-02T11:53:46.354Z,8.70
2024-02-02T11:56:22.499Z,7.30
2024-02-02T11:59:05.559Z,7.80
2024-02-02T12:01:52.301Z,8.80
2024-02-02T12:04:37.573Z,7.90
2024-02-02T12:07:20.026Z,7.10
2024-02-02T12:09:55.222Z,8.40
2024-02-02T12:12:41.723Z,7.90
2024-02-02T12:15:12.432Z,8.40
2024-02-02T12:17:42.943Z,7.80
2024-02-02T12:20:18.742Z,7.10
2024-02-02T12:22:49.485Z,7.80
2024-02-02T12:25:20.437Z,8.40
2024-02-02T12:27:50.558Z,8.50
2024-02-02T12:30:20.702Z,7.80
2024-02-02T12:32:58.639Z,7.90
2024-02-02T12:35:31.300Z,6.70
2024-02-02T12:38:01.762Z,6.80
2024-02-02T12:40:32.221Z,7.00
2024-02-02T12:43:03.844Z,8.30
2024-02-02T12:45:34.993Z,7.70
2024-02-02T12:48:07.030Z,7.90
2024-02-02T12:50:37.623Z,7.50
2024-02-02T12:53:07.629Z,8.00
2024-02-02T12:55:37.541Z,8.30
2024-02-02T12:58:10.988Z,8.10
2024-02-02T13:00:41.945Z,8.60
2024-02-02T13:03:14.604Z,7.10
2024-02-02T13:05:46.101Z,7.40
2024-02-02T13:08:26.660Z,7.00
2024-02-02T13:11:00.536Z,8.20
2024-02-02T13:13:30.519Z,8.70
2024-02-02T13:16:00.534Z,8.20
2024-02-02T13:18:37.645Z,7.80
2024-02-02T13:23:58.025Z,7.40
2024-02-02T13:29:08.825Z,8.00
2024-02-02T13:31:42.099Z,7.20
2024-02-02T13:34:16.145Z,7.30
2024-02-02T13:36:50.891Z,8.30
2024-02-02T13:39:24.556Z,8.70
2024-02-02T13:41:55.153Z,8.70
2024-02-02T13:44:26.808Z,7.80
2024-02-02T13:46:58.626Z,7.40
2024-02-02T13:49:34.210Z,7.30
2024-02-02T13:52:07.653Z,8.50
2024-02-02T13:54:41.312Z,7.10
2024-02-02T13:57:15.960Z,7.70
2024-02-02T13:59:46.754Z,7.70
2024-02-02T14:02:16.563Z,7.70
2024-02-02T14:04:48.954Z,8.60
2024-02-02T14:07:21.771Z,8.30
2024-02-02T14:10:00.594Z,7.70
2024-02-02T14:12:36.589Z,8.00
2024-02-02T14:15:11.121Z,8.50
2024-02-02T14:17:43.675Z,8.90
2024-02-02T14:20:17.585Z,7.90
2024-02-02T14:22:47.427Z,8.90
2024-02-02T14:25:30.793Z,9.00
2024-02-02T14:28:00.681Z,8.10
2024-02-02T14:30:33.638Z,8.80
2024-02-02T14:33:17.308Z,9.00
2024-02-02T14:35:54.624Z,9.80
2024-02-02T14:38:24.563Z,8.60
2024-02-02T14:41:04.912Z,8.20
2024-02-02T14:43:35.940Z,9.70
2024-02-02T14:46:08.691Z,8.40
2024-02-02T14:48:41.198Z,9.50
2024-02-02T14:51:13.596Z,9.30
2024-02-02T14:53:43.616Z,10.00
2024-02-02T14:56:13.909Z,9.30
2024-02-02T14:58:44.259Z,9.40
2024-02-02T15:01:17.034Z,8.90
2024-02-02T15:03:46.918Z,9.70
2024-02-02T15:06:17.433Z,9.60
2024-02-02T15:08:47.796Z,9.50
2024-02-02T15:11:17.750Z,9.40
2024-02-02T15:13:50.936Z,8.60
2024-02-02T15:16:20.956Z,9.40
2024-02-02T15:18:53.400Z,8.40
2024-02-02T15:21:23.429Z,7.90
2024-02-02T15:23:53.489Z,7.80
2024-02-02T15:26:23.477Z,7.50
2024-02-02T15:28:53.367Z,7.60
2024-02-02T15:31:23.882Z,7.30
2024-02-02T15:33:58.263Z,7.10
2024-02-02T15:36:29.993Z,7.10
2024-02-02T15:39:12.866Z,7.20
2024-02-02T15:41:52.321Z,7.20
2024-02-02T15:44:22.468Z,7.00
2024-02-02T15:46:52.380Z,7.10
2024-02-02T15:49:24.466Z,7.50
2024-02-02T15:51:56.556Z,6.70
2024-02-02T15:54:26.439Z,6.90
2024-02-02T15:56:57.701Z,7.80
2024-02-02T15:59:27.518Z,7.70
2024-02-02T16:01:59.630Z,7.70
2024-02-02T16:04:29.780Z,7.00
2024-02-02T16:07:06.129Z,6.40
2024-02-02T16:09:40.915Z,6.20
2024-02-02T16:12:15.924Z,6.30
2024-02-02T16:14:47.968Z,6.50
2024-02-02T16:17:17.860Z,6.30
2024-02-02T16:19:47.912Z,6.70
2024-02-02T16:22:22.812Z,6.50
2024-02-02T16:24:53.208Z,6.10
2024-02-02T16:27:25.802Z,6.80
2024-02-02T16:29:55.884Z,6.30
2024-02-02T16:32:25.939Z,6.10
2024-02-02T16:34:55.902Z,7.10
2024-02-02T16:37:26.010Z,6.10
2024-02-02T16:40:00.668Z,6.70
2024-02-02T16:42:30.670Z,6.20
2024-02-02T16:45:03.874Z,5.90
2024-02-02T16:47:33.758Z,5.80
2024-02-02T16:50:06.718Z,5.60
2024-02-02T16:52:39.053Z,7.50
2024-02-02T16:55:11.240Z,6.10
2024-02-02T16:57:41.746Z,6.80
2024-02-02T17:00:12.968Z,6.00
2024-02-02T17:02:42.849Z,5.90
2024-02-02T17:05:12.854Z,5.80
2024-02-02T17:07:45.907Z,6.20
2024-02-02T17:10:16.039Z,6.30
2024-02-02T17:12:46.345Z,6.20
2024-02-02T17:15:17.063Z,6.50
2024-02-02T17:17:49.324Z,6.60
2024-02-02T17:20:19.507Z,5.90
2024-02-02T17:22:49.593Z,7.00
2024-02-02T17:25:20.427Z,6.70
2024-02-02T17:27:50.311Z,6.80
2024-02-02T17:30:23.097Z,7.00
2024-02-02T17:32:57.468Z,7.20
2024-02-02T17:35:34.232Z,6.90
2024-02-02T17:38:15.084Z,6.70
2024-02-02T17:40:47.601Z,7.50
2024-02-02T17:43:18.553Z,7.50
2024-02-02T17:45:49.173Z,6.10
2024-02-02T17:48:21.802Z,6.20
2024-02-02T17:50:52.067Z,6.80
2024-02-02T17:53:22.216Z,7.00
2024-02-02T17:55:52.094Z,7.10
2024-02-02T17:58:22.065Z,6.10
2024-02-02T18:00:54.412Z,7.20
2024-02-02T18:03:26.923Z,6.30
2024-02-02T18:05:57.368Z,7.00
2024-02-02T18:08:30.042Z,6.80
2024-02-02T18:11:07.185Z,8.10
2024-02-02T18:13:42.319Z,7.50
2024-02-02T18:16:14.334Z,7.70
2024-02-02T18:18:46.899Z,6.90
2024-02-02T18:21:17.131Z,7.20
2024-02-02T18:23:47.004Z,6.50
2024-02-02T18:26:17.184Z,6.50
2024-02-02T18:28:49.582Z,7.30
2024-02-02T18:31:19.830Z,7.70
2024-02-02T18:33:53.286Z,7.00
2024-02-02T18:36:23.383Z,7.20
2024-02-02T18:38:53.377Z,7.40
2024-02-02T18:41:33.020Z,7.00
2024-02-02T18:44:03.639Z,7.10
2024-02-02T18:46:33.727Z,7.60
2024-02-02T18:49:05.966Z,7.40
2024-02-02T18:51:35.958Z,6.90
2024-02-02T18:54:06.851Z,6.90
2024-02-02T18:56:36.669Z,7.70
2024-02-02T18:59:07.335Z,7.20
2024-02-02T19:01:37.846Z,7.60
2024-02-02T19:04:12.461Z,8.40
2024-02-02T19:06:42.595Z,8.00
2024-02-02T19:09:14.623Z,7.90
2024-02-02T19:11:44.453Z,7.90
2024-02-02T19:14:19.837Z,7.80
2024-02-02T19:16:52.151Z,6.60
2024-02-02T19:19:22.500Z,7.50
2024-02-02T19:21:56.470Z,7.50
2024-02-02T19:24:26.481Z,8.10
2024-02-02T19:26:56.609Z,7.60
2024-02-02T19:29:28.705Z,7.00
2024-02-02T19:32:00.682Z,6.70
2024-02-02T19:34:30.960Z,7.00
2024-02-02T19:37:02.632Z,6.50
2024-02-02T19:39:32.614Z,7.60
2024-02-02T19:42:02.605Z,7.20
2024-02-02T19:44:32.608Z,7.00
2024-02-02T19:47:02.516Z,7.50
2024-02-02T19:49:35.186Z,7.30
2024-02-02T19:52:05.961Z,6.70
2024-02-02T19:54:37.174Z,6.20
2024-02-02T19:57:07.502Z,5.70
2024-02-02T19:59:39.671Z,5.60
2024-02-02T20:02:11.282Z,6.30
2024-02-02T20:04:43.651Z,5.90
2024-02-02T20:07:13.857Z,5.40
2024-02-02T20:09:43.786Z,5.20
2024-02-02T20:12:13.714Z,4.90
2024-02-02T20:14:44.029Z,4.50
2024-02-02T20:17:16.754Z,5.10
2024-02-02T20:22:19.637Z,4.90
2024-02-02T20:24:49.665Z,4.50
2024-02-02T20:27:19.890Z,4.30
2024-02-02T20:29:50.789Z,4.20
2024-02-02T20:32:20.595Z,4.60
2024-02-02T20:34:53.506Z,4.60
2024-02-02T20:37:23.858Z,4.80
2024-02-02T20:39:53.894Z,4.50
2024-02-02T20:42:23.961Z,4.00
2024-02-02T20:44:53.917Z,4.60
2024-02-02T20:47:25.972Z,3.90
2024-02-02T20:49:55.906Z,4.20
2024-02-02T20:52:25.890Z,4.90
2024-02-02T20:54:55.891Z,4.20
2024-02-02T20:57:25.883Z,4.50
2024-02-02T20:59:56.124Z,4.50
2024-02-02T21:02:26.329Z,4.40
2024-02-02T21:04:58.303Z,4.20
2024-02-02T21:07:32.894Z,4.50
2024-02-02T21:10:03.411Z,4.90
2024-02-02T21:12:33.298Z,4.30
2024-02-02T21:15:05.203Z,4.30
2024-02-02T21:17:37.930Z,5.20
2024-02-02T21:20:11.398Z,4.10
2024-02-02T21:22:41.175Z,3.50
2024-02-02T21:25:13.732Z,4.00
2024-02-02T21:27:44.560Z,4.50
2024-02-02T21:30:17.764Z,4.50
2024-02-02T21:32:47.734Z,4.30
2024-02-02T21:35:18.701Z,4.00
2024-02-02T21:37:51.032Z,4.40
2024-02-02T21:40:21.467Z,4.20
2024-02-02T21:42:55.101Z,4.00
2024-02-02T21:45:28.795Z,3.40
2024-02-02T21:47:58.871Z,3.70
2024-02-02T21:50:28.799Z,3.80
2024-02-02T21:52:58.919Z,3.70
2024-02-02T21:55:28.990Z,3.50
2024-02-02T21:57:59.306Z,3.80
2024-02-02T22:00:29.337Z,3.30
2024-02-02T22:03:01.460Z,3.20
2024-02-02T22:05:36.315Z,3.40
2024-02-02T22:08:11.131Z,3.20
2024-02-02T22:10:40.994Z,2.90
2024-02-02T22:13:11.648Z,2.90
2024-02-02T22:15:41.537Z,2.90
2024-02-02T22:18:12.162Z,2.60
2024-02-02T22:20:46.288Z,2.60
2024-02-02T22:23:16.520Z,2.70
2024-02-02T22:25:48.544Z,3.20
2024-02-02T22:28:20.850Z,2.90
2024-02-02T22:30:53.475Z,2.70
2024-02-02T22:33:23.630Z,3.10
2024-02-02T22:35:53.550Z,3.10
2024-02-02T22:38:26.877Z,2.80
2024-02-02T22:41:01.394Z,3.20
2024-02-02T22:43:37.019Z,3.70
2024-02-02T22:46:06.935Z,3.10
2024-02-02T22:48:36.905Z,3.70
2024-02-02T22:51:09.481Z,2.90
2024-02-02T22:53:39.927Z,3.20
2024-02-02T22:56:12.075Z,3.00
2024-02-02T22:58:44.310Z,3.30
2024-02-02T23:01:16.711Z,3.30
2024-02-02T23:03:46.686Z,2.90
2024-02-02T23:06:16.739Z,3.30
2024-02-02T23:08:47.094Z,3.20
2024-02-02T23:11:18.039Z,3.60
2024-02-02T23:13:48.138Z,3.10
2024-02-02T23:16:20.630Z,3.60
2024-02-02T23:18:50.620Z,3.70
2024-02-02T23:21:23.300Z,3.10
2024-02-02T23:23:53.082Z,3.20
2024-02-02T23:26:22.909Z,3.30
2024-02-02T23:28:52.867Z,3.30
2024-02-02T23:31:22.743Z,3.40
2024-02-02T23:33:52.898Z,3.50
2024-02-02T23:36:23.693Z,3.30
2024-02-02T23:38:53.593Z,2.90
2024-02-02T23:41:23.426Z,3.60
2024-02-02T23:43:53.403Z,3.00
2024-02-02T23:46:23.178Z,3.30
2024-02-02T23:48:53.188Z,3.20
2024-02-02T23:51:23.443Z,3.50
2024-02-02T23:53:55.782Z,3.50
2024-02-02T23:56:28.126Z,3.50
2024-02-02T23:58:57.925Z,3.30
